createdAt,value
2018-05-07T00:02:17.061Z,50.11
2018-05-07T00:04:44.691Z,49.85
2018-05-07T00:07:11.378Z,50.17
2018-05-07T00:09:38.773Z,50.36
2018-05-07T00:12:05.449Z,50.59
2018-05-07T00:14:32.123Z,50.48
2018-05-07T00:16:58.810Z,50.95
2018-05-07T00:19:25.508Z,51.68
2018-05-07T00:21:52.149Z,51.98
2018-05-07T00:24:18.877Z,52.19
2018-05-07T00:26:46.271Z,51.85
2018-05-07T00:29:12.899Z,51.83
2018-05-07T00:31:39.532Z,51.63
2018-05-07T00:34:12.345Z,51.83
2018-05-07T00:36:39.003Z,52.50
2018-05-07T00:39:06.415Z,52.62
2018-05-07T00:41:33.060Z,52.82
2018-05-07T00:43:59.713Z,53.58
2018-05-07T00:46:26.373Z,53.68
2018-05-07T00:48:53.325Z,54.25
2018-05-07T00:51:20.859Z,54.44
2018-05-07T00:53:47.509Z,53.83
2018-05-07T00:56:14.189Z,54.45
2018-05-07T00:58:41.601Z,54.89
2018-05-07T01:01:08.260Z,54.82
2018-05-07T01:03:34.890Z,54.96
2018-05-07T01:06:01.598Z,55.29
2018-05-07T01:08:28.269Z,55.14
2018-05-07T01:10:54.933Z,55.36
2018-05-07T01:13:22.329Z,55.41
2018-05-07T01:15:48.962Z,55.80
2018-05-07T01:18:15.603Z,56.45
2018-05-07T01:20:42.270Z,56.53
2018-05-07T01:23:09.020Z,56.40
2018-05-07T01:25:35.663Z,56.93
2018-05-07T01:28:02.464Z,56.62
2018-05-07T01:30:29.226Z,56.35
2018-05-07T01:32:56.017Z,55.88
2018-05-07T01:35:23.359Z,55.88
2018-05-07T01:37:50.770Z,56.06
2018-05-07T01:40:17.425Z,56.33
2018-05-07T01:42:44.085Z,56.92
2018-05-07T01:45:10.806Z,56.88
2018-05-07T01:47:37.448Z,56.75
2018-05-07T01:50:04.094Z,57.21
2018-05-07T01:52:30.805Z,56.70
2018-05-07T01:54:57.441Z,56.56
2018-05-07T01:57:24.269Z,56.69
2018-05-07T01:59:50.924Z,56.99
2018-05-07T02:02:17.586Z,56.66
2018-05-07T02:04:44.359Z,56.96
2018-05-07T02:07:11.768Z,56.69
2018-05-07T02:09:38.396Z,57.36
2018-05-07T02:12:05.051Z,57.29
2018-05-07T02:14:31.819Z,57.36
2018-05-07T02:16:58.604Z,57.34
2018-05-07T02:19:25.362Z,57.17
2018-05-07T02:21:51.989Z,57.93
2018-05-07T02:24:18.657Z,58.22
2018-05-07T02:26:45.503Z,57.89
2018-05-07T02:29:12.352Z,58.32
2018-05-07T02:31:38.974Z,58.20
2018-05-07T02:34:05.717Z,57.98
2018-05-07T02:36:32.338Z,57.90
2018-05-07T02:38:59.150Z,58.04
2018-05-07T02:41:25.753Z,57.95
2018-05-07T02:43:52.380Z,57.72
2018-05-07T02:46:19.912Z,58.15
2018-05-07T02:48:46.684Z,57.54
2018-05-07T02:51:13.332Z,57.78
2018-05-07T02:53:39.967Z,57.67
2018-05-07T02:56:08.111Z,57.81
2018-05-07T02:58:34.720Z,58.01
2018-05-07T03:01:01.360Z,58.10
2018-05-07T03:03:28.011Z,58.49
2018-05-07T03:05:54.638Z,58.67
2018-05-07T03:08:21.630Z,58.86
2018-05-07T03:10:48.387Z,59.19
2018-05-07T03:13:15.106Z,59.23
2018-05-07T03:15:41.804Z,59.02
2018-05-07T03:18:08.469Z,58.91
2018-05-07T03:20:35.156Z,59.12
2018-05-07T03:23:02.569Z,59.62
2018-05-07T03:25:29.170Z,59.09
2018-05-07T03:27:55.848Z,58.89
2018-05-07T03:30:22.502Z,59.09
2018-05-07T03:32:49.109Z,59.01
2018-05-07T03:35:15.728Z,59.38
2018-05-07T03:37:42.702Z,59.10
2018-05-07T03:40:09.389Z,59.15
2018-05-07T03:42:36.897Z,59.19
2018-05-07T03:45:03.739Z,58.93
2018-05-07T03:47:30.413Z,59.37
2018-05-07T03:49:57.042Z,59.16
2018-05-07T03:52:23.737Z,59.62
2018-05-07T03:54:50.394Z,59.28
2018-05-07T03:57:17.131Z,59.08
2018-05-07T03:59:43.837Z,59.59
2018-05-07T04:02:10.423Z,59.60
2018-05-07T04:04:37.148Z,59.63
2018-05-07T04:07:04.723Z,59.67
2018-05-07T04:09:31.819Z,59.57
2018-05-07T04:11:59.172Z,59.47
2018-05-07T04:14:26.586Z,59.47
2018-05-07T04:17:10.284Z,59.65
2018-05-07T04:19:55.391Z,59.52
2018-05-07T04:22:40.461Z,59.40
2018-05-07T04:25:07.133Z,59.47
2018-05-07T04:27:33.776Z,59.25
2018-05-07T04:30:00.396Z,59.12
2018-05-07T04:32:27.033Z,59.18
2018-05-07T04:34:53.651Z,59.48
2018-05-07T04:37:20.442Z,59.33
2018-05-07T04:39:47.865Z,59.08
2018-05-07T04:42:14.612Z,58.97
2018-05-07T04:44:41.443Z,58.59
2018-05-07T04:47:08.068Z,58.58
2018-05-07T04:49:34.740Z,58.19
2018-05-07T04:52:01.596Z,58.32
2018-05-07T04:54:28.403Z,57.82
2018-05-07T04:56:55.064Z,57.91
2018-05-07T04:59:21.704Z,57.81
2018-05-07T05:01:48.346Z,57.11
2018-05-07T05:04:15.305Z,56.96
2018-05-07T05:06:42.719Z,56.96
2018-05-07T05:09:09.471Z,56.16
2018-05-07T05:11:36.097Z,56.14
2018-05-07T05:14:03.013Z,56.36
2018-05-07T05:16:29.691Z,55.77
2018-05-07T05:18:56.380Z,55.69
2018-05-07T05:21:23.769Z,55.24
2018-05-07T05:23:50.522Z,55.14
2018-05-07T05:26:17.162Z,54.66
2018-05-07T05:28:43.802Z,54.67
2018-05-07T05:31:10.472Z,55.17
2018-05-07T05:33:37.234Z,54.94
2018-05-07T05:36:04.634Z,54.04
2018-05-07T05:38:31.328Z,52.69
2018-05-07T05:41:13.917Z,53.19
2018-05-07T05:43:41.030Z,53.09
2018-05-07T05:46:07.836Z,53.51
2018-05-07T05:48:35.231Z,53.47
2018-05-07T05:51:01.877Z,53.86
2018-05-07T05:53:33.069Z,53.94
2018-05-07T05:55:59.934Z,54.57
2018-05-07T05:58:26.605Z,54.25
2018-05-07T06:00:53.268Z,53.56
2018-05-07T06:03:19.991Z,53.39
2018-05-07T06:05:46.632Z,53.13
2018-05-07T06:08:13.260Z,53.17
2018-05-07T06:10:40.034Z,53.75
2018-05-07T06:13:06.701Z,53.37
2018-05-07T06:15:34.215Z,53.29
2018-05-07T06:18:01.033Z,52.76
2018-05-07T06:20:27.816Z,53.63
2018-05-07T06:22:54.444Z,53.10
2018-05-07T06:25:21.215Z,52.77
2018-05-07T06:27:48.632Z,53.31
2018-05-07T06:30:15.310Z,53.13
2018-05-07T06:32:41.975Z,52.71
2018-05-07T06:35:08.607Z,52.66
2018-05-07T06:37:35.975Z,52.89
2018-05-07T06:40:02.604Z,52.20
2018-05-07T06:42:29.335Z,51.45
2018-05-07T06:44:56.840Z,51.53
2018-05-07T06:47:23.480Z,51.73
2018-05-07T06:49:50.253Z,51.19
2018-05-07T06:52:16.903Z,50.24
2018-05-07T06:54:43.541Z,50.49
2018-05-07T06:57:10.926Z,50.73
2018-05-07T06:59:37.684Z,50.88
2018-05-07T07:02:04.395Z,51.27
2018-05-07T07:04:30.956Z,50.11
2018-05-07T07:06:57.592Z,50.20
2018-05-07T07:09:24.267Z,49.21
2018-05-07T07:11:50.925Z,49.10
2018-05-07T07:14:22.597Z,49.58
2018-05-07T07:16:50.001Z,49.46
2018-05-07T07:19:16.772Z,48.83
2018-05-07T07:21:43.408Z,48.74
2018-05-07T07:24:10.112Z,48.54
2018-05-07T07:26:36.728Z,48.55
2018-05-07T07:29:03.418Z,48.85
2018-05-07T07:31:30.055Z,48.16
2018-05-07T07:33:56.777Z,47.66
2018-05-07T07:36:24.141Z,47.83
2018-05-07T07:38:50.821Z,48.36
2018-05-07T07:41:18.287Z,47.21
2018-05-07T07:43:45.793Z,46.99
2018-05-07T07:46:12.548Z,46.93
2018-05-07T07:48:39.668Z,46.24
2018-05-07T07:51:06.332Z,46.43
2018-05-07T07:53:33.007Z,45.93
2018-05-07T07:55:59.649Z,45.53
2018-05-07T07:58:27.029Z,44.85
2018-05-07T08:00:53.672Z,46.11
2018-05-07T08:03:20.361Z,46.47
2018-05-07T08:05:46.991Z,45.80
2018-05-07T08:08:13.767Z,45.58
2018-05-07T08:10:41.129Z,44.82
2018-05-07T08:13:07.796Z,45.29
2018-05-07T08:15:34.426Z,44.97
2018-05-07T08:18:01.053Z,44.44
2018-05-07T08:20:27.703Z,44.21
2018-05-07T08:22:54.392Z,44.26
2018-05-07T08:25:21.775Z,43.86
2018-05-07T08:27:49.162Z,43.70
2018-05-07T08:30:15.978Z,43.60
2018-05-07T08:32:42.805Z,43.29
2018-05-07T08:35:10.169Z,43.77
2018-05-07T08:37:37.592Z,43.30
2018-05-07T08:40:04.253Z,43.06
2018-05-07T08:42:31.674Z,43.21
2018-05-07T08:44:58.318Z,42.45
2018-05-07T08:47:24.960Z,42.36
2018-05-07T08:49:51.566Z,42.72
2018-05-07T08:52:18.174Z,42.01
2018-05-07T08:54:44.825Z,42.59
2018-05-07T08:57:11.721Z,42.38
2018-05-07T08:59:38.421Z,42.03
2018-05-07T09:02:05.102Z,42.65
2018-05-07T09:04:31.700Z,41.54
2018-05-07T09:06:58.321Z,40.92
2018-05-07T09:09:24.974Z,41.10
2018-05-07T09:11:51.630Z,41.71
2018-05-07T09:14:18.265Z,41.72
2018-05-07T09:16:44.905Z,41.24
2018-05-07T09:19:11.577Z,41.24
2018-05-07T09:21:42.261Z,40.70
2018-05-07T09:24:08.914Z,40.00
2018-05-07T09:26:35.556Z,40.19
2018-05-07T09:29:02.200Z,40.29
2018-05-07T09:31:28.907Z,40.51
2018-05-07T09:33:56.275Z,40.33
2018-05-07T09:36:22.929Z,40.86
2018-05-07T09:38:49.587Z,40.20
2018-05-07T09:41:16.322Z,39.97
2018-05-07T09:43:43.679Z,39.10
2018-05-07T09:46:10.488Z,39.01
2018-05-07T09:48:37.159Z,39.91
2018-05-07T09:51:03.859Z,39.09
2018-05-07T09:53:30.635Z,38.34
2018-05-07T09:55:57.299Z,39.67
2018-05-07T09:58:23.961Z,39.47
2018-05-07T10:00:51.332Z,37.98
2018-05-07T10:03:18.056Z,38.58
2018-05-07T10:05:45.418Z,36.79
2018-05-07T10:08:12.790Z,37.50
2018-05-07T10:10:39.481Z,36.84
2018-05-07T10:13:06.124Z,37.33
2018-05-07T10:15:32.865Z,37.25
2018-05-07T10:17:59.508Z,37.54
2018-05-07T10:20:26.619Z,37.48
2018-05-07T10:22:53.384Z,36.52
2018-05-07T10:25:20.858Z,36.26
2018-05-07T10:27:47.560Z,36.91
2018-05-07T10:30:14.211Z,36.71
2018-05-07T10:32:41.035Z,37.03
2018-05-07T10:35:07.708Z,35.19
2018-05-07T10:37:35.818Z,34.78
2018-05-07T10:40:02.695Z,35.39
2018-05-07T10:42:29.360Z,34.72
2018-05-07T10:44:56.167Z,34.91
2018-05-07T10:47:22.798Z,35.57
2018-05-07T10:49:49.613Z,35.56
2018-05-07T10:52:17.021Z,35.42
2018-05-07T10:54:43.631Z,34.97
2018-05-07T10:57:10.436Z,33.73
2018-05-07T10:59:37.997Z,33.94
2018-05-07T11:02:04.667Z,34.19
2018-05-07T11:04:31.285Z,33.46
2018-05-07T11:06:58.983Z,32.69
2018-05-07T11:09:26.361Z,33.27
2018-05-07T11:12:02.792Z,32.99
2018-05-07T11:14:30.276Z,32.89
2018-05-07T11:16:56.929Z,32.59
2018-05-07T11:19:23.631Z,33.83
2018-05-07T11:21:50.327Z,32.95
2018-05-07T11:24:18.443Z,32.57
2018-05-07T11:26:45.145Z,32.99
2018-05-07T11:29:17.625Z,31.93
2018-05-07T11:31:44.768Z,32.48
2018-05-07T11:34:11.445Z,32.48
2018-05-07T11:36:38.151Z,32.22
2018-05-07T11:39:06.311Z,32.46
2018-05-07T11:41:33.097Z,32.06
2018-05-07T11:43:59.723Z,31.37
2018-05-07T11:46:27.146Z,31.75
2018-05-07T11:48:53.785Z,32.01
2018-05-07T11:51:20.499Z,32.78
2018-05-07T11:53:47.131Z,32.36
2018-05-07T11:56:13.950Z,32.54
2018-05-07T11:58:41.401Z,31.60
2018-05-07T12:01:08.801Z,31.78
2018-05-07T12:03:35.460Z,31.48
2018-05-07T12:06:03.082Z,33.38
2018-05-07T12:08:29.776Z,32.17
2018-05-07T12:10:56.469Z,31.83
2018-05-07T12:13:23.119Z,31.73
2018-05-07T12:15:49.942Z,31.71
2018-05-07T12:18:16.675Z,32.59
2018-05-07T12:20:43.354Z,31.71
2018-05-07T12:23:10.110Z,31.66
2018-05-07T12:25:36.698Z,32.78
2018-05-07T12:28:03.311Z,32.01
2018-05-07T12:30:30.711Z,32.19
2018-05-07T12:32:57.365Z,31.93
2018-05-07T12:35:24.041Z,31.46
2018-05-07T12:37:51.445Z,31.40
2018-05-07T12:40:18.067Z,32.30
2018-05-07T12:42:44.759Z,31.80
2018-05-07T12:45:11.402Z,31.19
2018-05-07T12:47:38.041Z,31.83
2018-05-07T12:50:06.362Z,31.37
2018-05-07T12:52:33.173Z,32.02
2018-05-07T12:55:00.700Z,30.75
2018-05-07T12:57:27.353Z,30.80
2018-05-07T12:59:54.035Z,30.19
2018-05-07T13:02:20.704Z,30.37
2018-05-07T13:04:47.410Z,30.75
2018-05-07T13:07:14.073Z,30.95
2018-05-07T13:09:40.750Z,29.95
2018-05-07T13:12:07.437Z,30.07
2018-05-07T13:14:34.815Z,29.77
2018-05-07T13:17:01.646Z,29.83
2018-05-07T13:19:28.309Z,29.75
2018-05-07T13:21:54.989Z,29.66
2018-05-07T13:24:22.358Z,29.74
2018-05-07T13:26:49.159Z,29.04
2018-05-07T13:29:15.841Z,28.01
2018-05-07T13:31:42.550Z,27.69
2018-05-07T13:34:09.166Z,28.40
2018-05-07T13:36:35.801Z,27.96
2018-05-07T13:39:02.517Z,28.65
2018-05-07T13:41:29.183Z,28.81
2018-05-07T13:43:55.885Z,27.12
2018-05-07T13:46:22.515Z,27.16
2018-05-07T13:48:49.181Z,26.40
2018-05-07T13:51:16.453Z,26.25
2018-05-07T13:53:43.175Z,25.59
2018-05-07T13:56:09.875Z,25.27
2018-05-07T13:58:37.241Z,25.09
2018-05-07T14:01:04.004Z,25.11
2018-05-07T14:03:30.640Z,24.97
2018-05-07T14:05:58.196Z,26.50
2018-05-07T14:08:24.850Z,26.89
2018-05-07T14:10:51.604Z,26.53
2018-05-07T14:13:18.262Z,26.47
2018-05-07T14:15:44.917Z,26.05
2018-05-07T14:18:12.335Z,25.67
2018-05-07T14:20:39.056Z,25.16
2018-05-07T14:23:05.724Z,25.00
2018-05-07T14:25:32.417Z,24.75
2018-05-07T14:27:59.084Z,24.27
2018-05-07T14:30:25.732Z,24.96
2018-05-07T14:32:52.393Z,26.51
2018-05-07T14:35:19.018Z,26.79
2018-05-07T14:37:45.629Z,26.31
2018-05-07T14:40:12.315Z,25.05
2018-05-07T14:42:38.944Z,25.03
2018-05-07T14:45:05.619Z,24.87
2018-05-07T14:47:32.997Z,24.58
2018-05-07T14:49:59.657Z,24.89
2018-05-07T14:52:26.988Z,24.72
2018-05-07T14:54:53.700Z,24.90
2018-05-07T14:57:21.140Z,24.45
2018-05-07T14:59:47.795Z,23.90
2018-05-07T15:02:15.193Z,24.39
2018-05-07T15:04:42.008Z,25.20
2018-05-07T15:07:08.614Z,25.32
2018-05-07T15:09:35.464Z,25.35
2018-05-07T15:12:02.098Z,26.20
2018-05-07T15:14:28.819Z,26.12
2018-05-07T15:16:55.637Z,26.31
2018-05-07T15:19:22.436Z,26.68
2018-05-07T15:21:50.079Z,27.90
2018-05-07T15:24:16.885Z,28.18
2018-05-07T15:26:43.697Z,28.80
2018-05-07T15:29:11.141Z,29.10
2018-05-07T15:31:37.827Z,28.77
2018-05-07T15:34:04.558Z,28.76
2018-05-07T15:36:31.202Z,28.79
2018-05-07T15:41:26.059Z,29.60
2018-05-07T15:43:53.708Z,30.03
2018-05-07T15:46:20.253Z,30.24
2018-05-07T15:48:46.965Z,30.78
2018-05-07T15:51:13.664Z,30.83
2018-05-07T15:53:40.473Z,30.90
2018-05-07T15:56:07.889Z,30.87
2018-05-07T15:58:34.516Z,30.03
2018-05-07T16:01:01.262Z,29.84
2018-05-07T16:03:27.958Z,30.00
2018-05-07T16:05:54.665Z,29.72
2018-05-07T16:08:21.440Z,29.90
2018-05-07T16:10:48.108Z,30.44
2018-05-07T16:13:14.759Z,31.09
2018-05-07T16:15:41.415Z,31.30
2018-05-07T16:18:08.046Z,31.55
2018-05-07T16:20:34.806Z,31.65
2018-05-07T16:23:01.595Z,31.62
2018-05-07T16:25:29.045Z,31.46
2018-05-07T16:27:56.653Z,31.49
2018-05-07T16:30:23.305Z,31.58
2018-05-07T16:32:50.148Z,31.60
2018-05-07T16:35:16.826Z,31.88
2018-05-07T16:37:44.263Z,31.54
2018-05-07T16:40:10.857Z,31.53
2018-05-07T16:42:37.575Z,31.75
2018-05-07T16:45:04.170Z,31.47
2018-05-07T16:47:30.865Z,31.26
2018-05-07T16:49:57.521Z,31.71
2018-05-07T16:52:24.347Z,31.02
2018-05-07T16:54:51.024Z,30.94
2018-05-07T16:57:17.672Z,31.42
2018-05-07T16:59:45.743Z,31.31
2018-05-07T17:02:12.346Z,31.45
2018-05-07T17:04:38.995Z,31.37
2018-05-07T17:07:05.793Z,31.19
2018-05-07T17:09:33.256Z,30.89
2018-05-07T17:12:00.710Z,30.98
2018-05-07T17:14:28.142Z,30.81
2018-05-07T17:16:54.798Z,30.88
2018-05-07T17:19:23.214Z,30.96
2018-05-07T17:21:49.945Z,30.53
2018-05-07T17:24:16.849Z,31.14
2018-05-07T17:26:43.659Z,31.11
2018-05-07T17:29:10.397Z,30.52
2018-05-07T17:31:37.180Z,30.89
2018-05-07T17:34:04.042Z,30.96
2018-05-07T17:36:31.592Z,30.91
2018-05-07T17:39:00.263Z,30.99
2018-05-07T17:41:26.971Z,31.12
2018-05-07T17:43:53.761Z,31.05
2018-05-07T17:49:30.453Z,31.08
2018-05-07T17:51:57.848Z,31.21
2018-05-07T17:54:24.580Z,31.25
2018-05-07T17:56:51.288Z,30.89
2018-05-07T17:59:17.942Z,30.79
2018-05-07T18:01:45.461Z,30.87
2018-05-07T18:04:12.281Z,30.82
2018-05-07T18:06:39.145Z,30.96
2018-05-07T18:09:05.859Z,31.13
2018-05-07T18:11:32.833Z,31.17
2018-05-07T18:13:59.731Z,31.44
2018-05-07T18:16:26.459Z,31.21
2018-05-07T18:18:54.406Z,31.26
2018-05-07T18:21:21.130Z,31.37
2018-05-07T18:23:47.765Z,32.98
2018-05-07T18:26:14.472Z,32.73
2018-05-07T18:28:41.945Z,31.64
2018-05-07T18:31:08.673Z,31.39
2018-05-07T18:33:35.534Z,31.46
2018-05-07T18:36:02.198Z,31.65
2018-05-07T18:38:28.994Z,31.79
2018-05-07T18:40:55.767Z,31.90
2018-05-07T18:43:22.425Z,32.17
2018-05-07T18:45:49.212Z,32.24
2018-05-07T18:48:15.762Z,32.25
2018-05-07T18:50:42.417Z,32.42
2018-05-07T18:53:09.097Z,32.48
2018-05-07T18:55:36.515Z,32.61
2018-05-07T18:58:03.189Z,32.85
2018-05-07T19:00:30.600Z,33.03
2018-05-07T19:02:57.284Z,33.00
2018-05-07T19:05:24.754Z,33.23
2018-05-07T19:07:52.169Z,33.22
2018-05-07T19:10:18.828Z,33.53
2018-05-07T19:12:45.574Z,33.76
2018-05-07T19:15:12.510Z,34.01
2018-05-07T19:17:39.324Z,34.21
2018-05-07T19:20:06.638Z,34.33
2018-05-07T19:22:33.345Z,34.59
2018-05-07T19:25:00.767Z,34.76
2018-05-07T19:27:27.517Z,34.83
2018-05-07T19:29:54.204Z,35.15
2018-05-07T19:32:20.845Z,35.18
2018-05-07T19:34:48.402Z,35.41
2018-05-07T19:37:15.818Z,35.49
2018-05-07T19:39:42.703Z,35.78
2018-05-07T19:42:10.138Z,35.97
2018-05-07T19:44:36.806Z,36.24
2018-05-07T19:47:04.209Z,36.22
2018-05-07T19:49:30.914Z,36.45
2018-05-07T19:51:58.694Z,36.53
2018-05-07T19:54:25.530Z,36.54
2018-05-07T19:56:52.186Z,36.65
2018-05-07T19:59:18.873Z,36.54
2018-05-07T20:01:46.361Z,36.73
2018-05-07T20:04:13.062Z,36.79
2018-05-07T20:06:39.805Z,36.72
2018-05-07T20:09:06.475Z,36.51
2018-05-07T20:11:33.185Z,36.64
2018-05-07T20:13:59.861Z,36.82
2018-05-07T20:16:26.609Z,36.67
2018-05-07T20:18:53.323Z,36.63
2018-05-07T20:21:20.732Z,36.85
2018-05-07T20:23:47.539Z,36.88
2018-05-07T20:26:14.232Z,36.78
2018-05-07T20:28:40.895Z,36.98
2018-05-07T20:31:08.256Z,37.09
2018-05-07T20:33:34.971Z,37.10
2018-05-07T20:36:01.629Z,37.36
2018-05-07T20:38:29.061Z,37.29
2018-05-07T20:40:55.754Z,37.36
2018-05-07T20:43:22.419Z,37.43
2018-05-07T20:45:49.163Z,37.53
2018-05-07T20:48:15.870Z,37.83
2018-05-07T20:50:42.458Z,37.73
2018-05-07T20:53:09.113Z,37.46
2018-05-07T20:55:37.296Z,37.68
2018-05-07T20:58:04.670Z,38.03
2018-05-07T21:00:31.345Z,38.12
2018-05-07T21:02:58.053Z,38.16
2018-05-07T21:05:24.657Z,38.29
2018-05-07T21:07:51.347Z,38.43
2018-05-07T21:10:18.181Z,38.04
2018-05-07T21:12:44.836Z,38.33
2018-05-07T21:15:11.493Z,38.41
2018-05-07T21:17:38.131Z,38.39
2018-05-07T21:20:05.018Z,38.58
2018-05-07T21:22:32.534Z,38.95
2018-05-07T21:24:59.378Z,39.15
2018-05-07T21:27:25.979Z,39.45
2018-05-07T21:29:52.683Z,39.53
2018-05-07T21:32:20.078Z,39.66
2018-05-07T21:34:46.750Z,39.43
2018-05-07T21:37:13.424Z,39.56
2018-05-07T21:39:40.972Z,39.56
2018-05-07T21:42:07.778Z,39.95
2018-05-07T21:44:34.402Z,40.35
2018-05-07T21:47:01.155Z,40.34
2018-05-07T21:49:27.856Z,40.49
2018-05-07T21:51:55.353Z,40.48
2018-05-07T21:54:22.034Z,40.52
2018-05-07T21:56:49.400Z,40.82
2018-05-07T21:59:16.806Z,41.07
2018-05-07T22:01:43.466Z,41.18
2018-05-07T22:04:10.166Z,41.25
2018-05-07T22:06:36.852Z,41.49
2018-05-07T22:09:03.616Z,41.55
2018-05-07T22:11:31.001Z,41.64
2018-05-07T22:13:57.639Z,41.38
2018-05-07T22:16:24.338Z,41.44
2018-05-07T22:18:50.987Z,41.73
2018-05-07T22:21:18.400Z,41.67
2018-05-07T22:23:45.039Z,41.50
2018-05-07T22:26:11.754Z,41.50
2018-05-07T22:28:39.178Z,41.58
2018-05-07T22:31:06.754Z,42.04
2018-05-07T22:33:34.160Z,41.78
2018-05-07T22:36:00.829Z,42.34
2018-05-07T22:38:28.228Z,42.55
2018-05-07T22:40:54.881Z,42.50
2018-05-07T22:43:21.656Z,42.50
2018-05-07T22:45:49.032Z,42.71
2018-05-07T22:48:16.408Z,42.62
2018-05-07T22:50:43.075Z,42.37
2018-05-07T22:53:09.724Z,42.77
2018-05-07T22:55:36.368Z,43.09
2018-05-07T22:58:03.023Z,43.33
2018-05-07T23:00:29.708Z,43.37
2018-05-07T23:02:56.321Z,43.68
2018-05-07T23:05:23.710Z,43.68
2018-05-07T23:07:50.430Z,44.08
2018-05-07T23:10:17.155Z,44.39
2018-05-07T23:12:44.535Z,44.87
2018-05-07T23:15:11.180Z,45.00
2018-05-07T23:17:38.288Z,45.26
2018-05-07T23:20:05.678Z,45.76
2018-05-07T23:22:32.365Z,45.79
2018-05-07T23:24:59.013Z,45.49
2018-05-07T23:27:25.660Z,45.32
2018-05-07T23:29:52.311Z,45.69
2018-05-07T23:32:19.903Z,46.00
2018-05-07T23:34:46.727Z,46.22
2018-05-07T23:37:13.622Z,46.47
2018-05-07T23:39:40.286Z,46.71
2018-05-07T23:42:07.689Z,46.75
2018-05-07T23:44:34.339Z,47.17
2018-05-07T23:47:00.983Z,47.57
2018-05-07T23:49:27.623Z,47.95
2018-05-07T23:51:54.311Z,48.03
2018-05-07T23:54:21.864Z,47.83
2018-05-07T23:56:49.423Z,47.88
2018-05-07T23:59:16.870Z,47.69
